Current | Forecast
Updated: 5:30 PM CET on February 21, 2018
Observed at Reus, Spain
Temperature 11°C
Humidity 67%
Dew Point 5°C
Wind South at 11 km/h
Pressure 1006 hPa (Steady)
Conditions Partly Cloudy
Visibility 10.0 kilometers
UV 1 out of 16
Clouds (FEW) : 1066 m
Yesterday's Maximum 18°C
Yesterday's Minimum 7°C approx.
Yesterday's Heating Degree Days 11 approx.
Sunrise7:44 AM CET
Sunset6:38 PM CET
Moon Rise10:49 AM CET
Moon Set
Moon PhaseMoon Phase
Waxing Crescent
Raw METARMETAR LERS 211630Z 19006KT 140V230 9999 FEW035 11/05 Q1006


Monday
. High: 89° F.
Tuesday
. High: 87° F.
Wednesday
. High: 78° F.
Thursday
. High: 78° F.
Friday
. High: 78° F.
Saturday
. High: 87° F.
Sunday
. High: 84° F.
Monday
. High: 87° F.

Click here for Marine Information
Scientific forecaster discussion (NWS)

Units: English | Metric

Find the Weather for any City, State or Zipcode, or Country:

U.S. State List | Severe Weather | Tropical Storms | Ski Conditions
United States | Canada | Central America | South America | Asia | Europe | Australia | Africa | Islands

Weather Underground

© Copyright 2018
The Weather Company, LLC